createdAt,value
2022-11-08T00:02:07.876Z,33.70
2022-11-08T00:05:29.780Z,33.40
2022-11-08T00:08:51.550Z,28.70
2022-11-08T00:12:13.210Z,30.20
2022-11-08T00:15:16.208Z,27.80
2022-11-08T00:18:19.511Z,28.80
2022-11-08T00:21:23.314Z,30.90
2022-11-08T00:24:26.490Z,29.10
2022-11-08T00:27:29.525Z,28.40
2022-11-08T00:30:32.517Z,30.00
2022-11-08T00:33:35.791Z,30.60
2022-11-08T00:36:38.802Z,29.60
2022-11-08T00:39:42.078Z,28.70
2022-11-08T00:42:45.084Z,30.80
2022-11-08T00:45:48.084Z,28.00
2022-11-08T00:48:51.046Z,33.00
2022-11-08T00:51:54.322Z,33.60
2022-11-08T00:54:57.314Z,35.00
2022-11-08T00:58:00.910Z,32.20
2022-11-08T01:01:12.602Z,30.10
2022-11-08T01:04:18.037Z,33.80
2022-11-08T01:07:21.004Z,31.60
2022-11-08T01:10:26.673Z,31.40
2022-11-08T01:13:30.345Z,33.80
2022-11-08T01:16:35.009Z,34.90
2022-11-08T01:19:38.006Z,33.50
2022-11-08T01:22:41.042Z,31.30
2022-11-08T01:25:46.249Z,30.20
2022-11-08T01:28:49.547Z,37.90
2022-11-08T01:31:52.507Z,29.10
2022-11-08T01:34:55.531Z,27.40
2022-11-08T01:37:59.841Z,29.80
2022-11-08T01:41:03.260Z,27.40
2022-11-08T01:44:06.289Z,28.80
2022-11-08T01:47:09.288Z,24.50
2022-11-08T01:50:16.993Z,27.20
2022-11-08T01:53:20.230Z,24.30
2022-11-08T01:56:23.242Z,29.00
2022-11-08T01:59:26.695Z,28.70
2022-11-08T02:02:30.695Z,27.00
2022-11-08T02:05:33.919Z,24.70
2022-11-08T02:08:42.248Z,26.70
2022-11-08T02:11:47.661Z,28.20
2022-11-08T02:14:51.115Z,27.00
2022-11-08T02:17:55.138Z,26.70
2022-11-08T02:21:08.681Z,32.40
2022-11-08T02:24:14.024Z,30.40
2022-11-08T02:27:17.194Z,26.50
2022-11-08T02:30:20.318Z,30.40
2022-11-08T02:33:23.769Z,29.40
2022-11-08T02:36:26.927Z,23.30
2022-11-08T02:39:30.720Z,25.20
2022-11-08T02:42:33.994Z,25.50
2022-11-08T02:45:36.961Z,25.00
2022-11-08T02:48:39.927Z,24.10
2022-11-08T02:51:42.887Z,23.90
2022-11-08T02:54:45.894Z,25.40
2022-11-08T02:57:48.930Z,27.10
2022-11-08T03:00:51.973Z,24.10
2022-11-08T03:03:55.013Z,23.90
2022-11-08T03:06:57.982Z,25.30
2022-11-08T03:10:00.923Z,24.10
2022-11-08T03:13:05.598Z,23.40
2022-11-08T03:16:08.750Z,23.10
2022-11-08T03:19:12.208Z,23.90
2022-11-08T03:22:15.442Z,22.90
2022-11-08T03:25:18.409Z,27.50
2022-11-08T03:28:23.096Z,22.50
2022-11-08T03:31:26.466Z,23.00
2022-11-08T03:34:29.505Z,21.70
2022-11-08T03:37:32.509Z,22.80
2022-11-08T03:40:35.498Z,21.60
2022-11-08T03:43:38.474Z,17.30
2022-11-08T03:46:41.653Z,20.20
2022-11-08T03:49:44.750Z,17.50
2022-11-08T03:52:50.451Z,18.90
2022-11-08T03:55:53.602Z,17.20
2022-11-08T03:58:56.730Z,16.50
2022-11-08T04:01:59.937Z,18.70
2022-11-08T04:05:03.465Z,15.90
2022-11-08T04:08:06.539Z,15.10
2022-11-08T04:11:27.910Z,16.70
2022-11-08T04:14:49.549Z,16.40
2022-11-08T04:18:12.659Z,14.20
2022-11-08T04:21:21.809Z,17.20
2022-11-08T04:24:25.155Z,12.40
2022-11-08T04:27:29.407Z,14.40
2022-11-08T04:30:33.048Z,14.70
2022-11-08T04:33:36.352Z,14.10
2022-11-08T04:36:39.394Z,17.80
2022-11-08T04:39:42.459Z,14.60
2022-11-08T04:42:45.436Z,14.30
2022-11-08T04:45:48.357Z,16.00
2022-11-08T04:48:54.472Z,16.70
2022-11-08T04:51:57.492Z,13.50
2022-11-08T04:55:00.396Z,14.60
2022-11-08T04:58:03.348Z,15.40
2022-11-08T05:01:08.142Z,16.80
2022-11-08T05:04:11.146Z,16.40
2022-11-08T05:07:14.133Z,19.00
2022-11-08T05:10:17.495Z,16.70
2022-11-08T05:13:20.404Z,16.50
2022-11-08T05:16:26.379Z,16.70
2022-11-08T05:19:47.999Z,16.60
2022-11-08T05:23:09.503Z,16.30
2022-11-08T05:26:12.861Z,13.30
2022-11-08T05:29:16.870Z,18.80
2022-11-08T05:32:19.799Z,16.70
2022-11-08T05:35:23.096Z,19.90
2022-11-08T05:38:26.124Z,15.20
2022-11-08T05:41:29.785Z,17.10
2022-11-08T05:44:32.920Z,15.80
2022-11-08T05:47:36.026Z,17.60
2022-11-08T05:50:38.958Z,17.20
2022-11-08T05:53:48.725Z,23.50
2022-11-08T05:56:52.011Z,21.80
2022-11-08T05:59:55.062Z,22.10
2022-11-08T06:02:58.032Z,21.70
2022-11-08T06:06:15.820Z,18.70
2022-11-08T06:09:18.834Z,20.60
2022-11-08T06:12:21.803Z,19.70
2022-11-08T06:15:24.729Z,16.30
2022-11-08T06:18:28.696Z,15.30
2022-11-08T06:21:31.646Z,18.80
2022-11-08T06:24:34.585Z,15.20
2022-11-08T06:27:37.561Z,14.60
2022-11-08T06:30:41.016Z,14.00
2022-11-08T06:33:43.980Z,12.80
2022-11-08T06:36:47.073Z,15.50
2022-11-08T06:39:49.998Z,19.10
2022-11-08T06:42:53.494Z,19.10
2022-11-08T06:46:01.282Z,17.80
2022-11-08T06:49:04.234Z,19.20
2022-11-08T06:52:07.547Z,16.40
2022-11-08T06:55:10.512Z,15.30
2022-11-08T06:58:13.601Z,16.60
2022-11-08T07:01:16.653Z,16.10
2022-11-08T07:04:19.943Z,17.10
2022-11-08T07:07:23.422Z,17.90
2022-11-08T07:10:29.621Z,17.60
2022-11-08T07:13:32.806Z,17.80
2022-11-08T07:16:35.762Z,20.00
2022-11-08T07:19:38.745Z,19.80
2022-11-08T07:22:41.650Z,19.60
2022-11-08T07:25:44.576Z,19.20
2022-11-08T07:28:47.556Z,25.20
2022-11-08T07:31:50.437Z,21.90
2022-11-08T07:34:53.374Z,23.10
2022-11-08T07:37:56.739Z,22.60
2022-11-08T07:41:01.418Z,19.90
2022-11-08T07:44:04.405Z,23.40
2022-11-08T07:47:07.349Z,23.90
2022-11-08T07:50:10.714Z,20.00
2022-11-08T07:53:13.627Z,19.20
2022-11-08T07:56:16.806Z,21.90
2022-11-08T07:59:19.798Z,31.30
2022-11-08T08:02:24.099Z,21.40
2022-11-08T08:05:28.683Z,15.20
2022-11-08T08:11:48.960Z,11.70
2022-11-08T08:14:51.970Z,12.90
2022-11-08T08:17:55.496Z,14.70
2022-11-08T08:20:59.338Z,17.70
2022-11-08T08:24:02.367Z,21.40
2022-11-08T08:27:05.362Z,13.30
2022-11-08T08:30:08.934Z,15.00
2022-11-08T08:33:27.916Z,11.80
2022-11-08T08:36:31.780Z,11.80
2022-11-08T08:39:34.781Z,11.70
2022-11-08T08:42:37.781Z,16.40
2022-11-08T08:45:45.010Z,13.40
2022-11-08T08:48:48.440Z,10.30
2022-11-08T08:51:51.657Z,11.50
2022-11-08T08:54:54.630Z,11.80
2022-11-08T08:57:58.473Z,15.70
2022-11-08T09:04:31.924Z,18.60
2022-11-08T09:07:35.026Z,21.00
2022-11-08T09:10:38.322Z,15.20
2022-11-08T09:13:43.591Z,17.90
2022-11-08T09:16:46.651Z,16.90
2022-11-08T09:19:54.412Z,14.20
2022-11-08T09:23:04.119Z,14.50
2022-11-08T09:26:07.251Z,17.50
2022-11-08T09:29:10.263Z,18.00
2022-11-08T09:32:13.386Z,17.60
2022-11-08T09:35:16.570Z,17.00
2022-11-08T09:38:20.763Z,19.50
2022-11-08T09:41:51.404Z,17.30
2022-11-08T09:45:03.384Z,23.40
2022-11-08T09:48:18.451Z,23.40
2022-11-08T09:51:23.922Z,20.60
2022-11-08T09:54:39.226Z,18.20
2022-11-08T09:58:14.391Z,18.70
2022-11-08T10:01:17.803Z,18.20
2022-11-08T10:04:27.916Z,18.90
2022-11-08T10:07:54.542Z,17.70
2022-11-08T10:11:31.896Z,13.80
2022-11-08T10:14:54.166Z,15.60
2022-11-08T10:18:22.001Z,15.00
2022-11-08T10:21:28.251Z,13.40
2022-11-08T10:24:50.006Z,16.60
2022-11-08T10:27:56.422Z,12.50
2022-11-08T10:30:59.728Z,19.20
2022-11-08T10:34:12.696Z,17.50
2022-11-08T10:37:17.904Z,15.00
2022-11-08T10:40:27.097Z,15.10
2022-11-08T10:43:36.636Z,16.60
2022-11-08T10:46:45.598Z,17.80
2022-11-08T10:49:48.796Z,17.20
2022-11-08T10:53:06.063Z,14.50
2022-11-08T10:56:09.162Z,12.80
2022-11-08T10:59:29.952Z,11.80
2022-11-08T11:02:35.509Z,13.50
2022-11-08T11:05:44.573Z,13.40
2022-11-08T11:08:54.646Z,9.80
2022-11-08T11:12:07.286Z,9.60
2022-11-08T11:15:19.084Z,7.10
2022-11-08T11:18:22.149Z,8.40
2022-11-08T11:21:25.513Z,7.00
2022-11-08T11:24:28.694Z,8.00
2022-11-08T11:27:36.436Z,10.40
2022-11-08T11:30:42.611Z,7.20
2022-11-08T11:33:46.737Z,7.90
2022-11-08T11:37:11.129Z,18.90
2022-11-08T11:40:19.510Z,6.40
2022-11-08T11:43:43.109Z,9.10
2022-11-08T11:46:53.358Z,6.40
2022-11-08T11:50:12.241Z,7.60
2022-11-08T11:53:39.495Z,7.70
2022-11-08T11:57:16.894Z,5.00
2022-11-08T12:00:19.987Z,4.00
2022-11-08T12:03:31.505Z,4.60
2022-11-08T12:06:50.343Z,5.20
2022-11-08T12:10:19.887Z,5.50
2022-11-08T12:13:31.621Z,7.30
2022-11-08T12:16:43.037Z,10.30
2022-11-08T12:20:12.507Z,7.20
2022-11-08T12:23:30.731Z,5.80
2022-11-08T12:26:36.743Z,6.20
2022-11-08T12:30:00.290Z,5.00
2022-11-08T12:33:03.265Z,4.30
2022-11-08T12:36:32.507Z,5.40
2022-11-08T12:39:47.072Z,6.20
2022-11-08T12:43:23.070Z,3.90
2022-11-08T12:46:30.888Z,5.90
2022-11-08T12:49:40.572Z,4.40
2022-11-08T12:52:57.899Z,5.50
2022-11-08T12:56:04.158Z,4.70
2022-11-08T12:59:21.439Z,7.60
2022-11-08T13:02:31.944Z,6.40
2022-11-08T13:05:40.296Z,8.10
2022-11-08T13:09:12.837Z,6.40
2022-11-08T13:12:43.237Z,6.50
2022-11-08T13:16:15.888Z,6.10
2022-11-08T13:22:32.715Z,6.00
2022-11-08T13:25:36.625Z,8.20
2022-11-08T13:28:46.387Z,7.00
2022-11-08T13:32:01.845Z,7.40
2022-11-08T13:35:30.637Z,8.20
2022-11-08T13:39:05.967Z,8.00
2022-11-08T13:42:18.003Z,9.40
2022-11-08T13:45:29.790Z,13.70
2022-11-08T13:48:36.722Z,6.50
2022-11-08T13:51:41.214Z,5.00
2022-11-08T13:54:53.500Z,5.10
2022-11-08T13:58:01.244Z,7.60
2022-11-08T14:01:23.807Z,7.00
2022-11-08T14:04:40.879Z,7.10
2022-11-08T14:07:50.914Z,6.70
2022-11-08T14:15:24.967Z,8.50
2022-11-08T14:18:31.430Z,8.70
2022-11-08T14:21:36.441Z,19.90
2022-11-08T14:24:39.850Z,8.30
2022-11-08T14:27:42.940Z,10.10
2022-11-08T14:30:51.210Z,9.30
2022-11-08T14:33:55.535Z,8.10
2022-11-08T14:37:00.174Z,8.10
2022-11-08T14:40:04.491Z,9.50
2022-11-08T14:43:12.129Z,8.70
2022-11-08T14:46:38.026Z,11.20
2022-11-08T14:49:41.049Z,14.20
2022-11-08T14:52:44.294Z,21.50
2022-11-08T14:55:47.585Z,35.80
2022-11-08T14:58:53.245Z,56.60
2022-11-08T15:01:56.561Z,65.40
2022-11-08T15:04:59.725Z,57.10
2022-11-08T15:08:06.628Z,51.80
2022-11-08T15:11:12.974Z,42.60
2022-11-08T15:14:23.382Z,38.70
2022-11-08T15:17:35.387Z,22.90
2022-11-08T15:20:39.305Z,33.60
2022-11-08T15:23:53.406Z,30.70
2022-11-08T15:27:16.770Z,24.20
2022-11-08T15:30:34.776Z,21.60
2022-11-08T15:33:40.887Z,21.40
2022-11-08T15:36:44.049Z,19.40
2022-11-08T15:39:47.367Z,20.20
2022-11-08T15:42:53.404Z,21.90
2022-11-08T15:45:56.979Z,20.60
2022-11-08T15:49:00.150Z,18.90
2022-11-08T15:52:05.727Z,20.20
2022-11-08T15:55:12.768Z,24.50
2022-11-08T15:58:26.992Z,19.80
2022-11-08T16:01:30.104Z,22.50
2022-11-08T16:04:33.132Z,20.80
2022-11-08T16:07:36.125Z,21.30
2022-11-08T16:10:42.568Z,24.00
2022-11-08T16:13:45.660Z,25.20
2022-11-08T16:16:48.916Z,24.60
2022-11-08T16:19:51.864Z,24.30
2022-11-08T16:22:56.866Z,30.40
2022-11-08T16:26:01.035Z,26.20
2022-11-08T16:29:04.946Z,28.20
2022-11-08T16:32:09.913Z,31.20
2022-11-08T16:35:22.223Z,30.50
2022-11-08T16:38:28.856Z,31.20
2022-11-08T16:41:31.756Z,27.90
2022-11-08T16:44:34.689Z,33.80
2022-11-08T16:47:37.684Z,35.30
2022-11-08T16:50:40.816Z,36.20
2022-11-08T16:53:44.320Z,35.90
2022-11-08T16:56:47.319Z,34.50
2022-11-08T16:59:50.256Z,35.10
2022-11-08T17:02:53.394Z,39.90
2022-11-08T17:05:57.190Z,33.10
2022-11-08T17:09:00.109Z,33.90
2022-11-08T17:12:03.578Z,43.50
2022-11-08T17:15:11.479Z,40.80
2022-11-08T17:18:17.112Z,43.60
2022-11-08T17:24:44.629Z,43.60
2022-11-08T17:27:50.032Z,54.40
2022-11-08T17:30:53.006Z,47.50
2022-11-08T17:33:56.074Z,51.50
2022-11-08T17:36:59.141Z,49.30
2022-11-08T17:40:03.502Z,46.90
2022-11-08T17:43:06.433Z,46.90
2022-11-08T17:46:11.228Z,48.70
2022-11-08T17:49:14.338Z,39.20
2022-11-08T17:52:17.415Z,38.70
2022-11-08T17:55:20.507Z,35.90
2022-11-08T17:58:24.032Z,39.60
2022-11-08T18:01:31.686Z,38.80
2022-11-08T18:04:36.597Z,36.90
2022-11-08T18:07:53.212Z,40.00
2022-11-08T18:11:01.973Z,35.20
2022-11-08T18:14:08.012Z,39.50
2022-11-08T18:17:12.500Z,38.00
2022-11-08T18:20:15.552Z,38.50
2022-11-08T18:23:19.285Z,38.00
2022-11-08T18:26:22.758Z,37.70
2022-11-08T18:29:25.693Z,41.10
2022-11-08T18:32:29.064Z,40.70
2022-11-08T18:35:32.422Z,42.60
2022-11-08T18:38:36.313Z,42.60
2022-11-08T18:41:39.418Z,43.30
2022-11-08T18:44:42.423Z,43.30
2022-11-08T18:47:45.540Z,43.10
2022-11-08T18:50:51.704Z,46.80
2022-11-08T18:53:54.809Z,43.40
2022-11-08T18:56:57.859Z,46.60
2022-11-08T19:00:01.464Z,44.10
2022-11-08T19:03:04.668Z,43.80
2022-11-08T19:06:08.560Z,41.60
2022-11-08T19:09:11.722Z,43.10
2022-11-08T19:12:14.743Z,43.00
2022-11-08T19:15:17.808Z,41.10
2022-11-08T19:18:20.789Z,41.80
2022-11-08T19:21:26.573Z,36.70
2022-11-08T19:24:29.765Z,39.90
2022-11-08T19:27:33.191Z,36.40
2022-11-08T19:30:36.124Z,55.90
2022-11-08T19:33:39.100Z,39.20
2022-11-08T19:36:45.039Z,38.60
2022-11-08T19:39:48.417Z,40.90
2022-11-08T19:42:52.193Z,41.90
2022-11-08T19:45:55.565Z,42.30
2022-11-08T19:49:03.896Z,38.70
2022-11-08T19:52:06.973Z,43.00
2022-11-08T19:55:09.952Z,43.80
2022-11-08T19:58:12.862Z,43.50
2022-11-08T20:01:21.482Z,38.30
2022-11-08T20:04:24.492Z,40.50
2022-11-08T20:07:27.411Z,44.50
2022-11-08T20:10:30.572Z,39.60
2022-11-08T20:13:33.629Z,40.20
2022-11-08T20:16:40.961Z,39.20
2022-11-08T20:19:44.347Z,39.70
2022-11-08T20:22:48.306Z,39.90
2022-11-08T20:25:51.395Z,42.30
2022-11-08T20:28:56.666Z,42.70
2022-11-08T20:32:00.432Z,42.10
2022-11-08T20:35:04.235Z,37.50
2022-11-08T20:38:07.436Z,42.30
2022-11-08T20:41:12.812Z,40.40
2022-11-08T20:44:16.470Z,39.20
2022-11-08T20:47:20.159Z,42.50
2022-11-08T20:50:23.110Z,39.80
2022-11-08T20:53:27.279Z,35.30
2022-11-08T20:56:30.503Z,37.40
2022-11-08T20:59:33.455Z,36.70
2022-11-08T21:02:36.432Z,33.20
2022-11-08T21:05:39.543Z,34.20
2022-11-08T21:09:00.816Z,37.80
2022-11-08T21:12:06.141Z,36.40
2022-11-08T21:15:09.584Z,38.50
2022-11-08T21:18:13.100Z,36.40
2022-11-08T21:21:18.798Z,38.00
2022-11-08T21:24:21.810Z,38.60
2022-11-08T21:27:29.598Z,37.60
2022-11-08T21:30:33.136Z,38.80
2022-11-08T21:33:37.396Z,34.60
2022-11-08T21:36:40.594Z,37.70
2022-11-08T21:39:43.839Z,34.60
2022-11-08T21:42:48.855Z,36.00
2022-11-08T21:45:52.164Z,32.40
2022-11-08T21:48:58.798Z,35.30
2022-11-08T21:52:03.668Z,34.20
2022-11-08T21:55:07.164Z,31.70
2022-11-08T21:58:10.332Z,29.80
2022-11-08T22:01:13.594Z,30.70
2022-11-08T22:04:16.728Z,28.40
2022-11-08T22:07:19.962Z,28.00
2022-11-08T22:10:23.166Z,26.40
2022-11-08T22:13:26.371Z,27.90
2022-11-08T22:16:29.509Z,31.20
2022-11-08T22:19:32.709Z,27.90
2022-11-08T22:22:35.846Z,28.50
2022-11-08T22:25:38.934Z,29.60
2022-11-08T22:28:42.109Z,27.30
2022-11-08T22:31:45.427Z,26.00
2022-11-08T22:34:48.544Z,27.90
2022-11-08T22:37:51.652Z,25.20
2022-11-08T22:40:54.767Z,27.10
2022-11-08T22:43:57.913Z,26.60
2022-11-08T22:47:01.057Z,25.80
2022-11-08T22:50:05.239Z,27.90
2022-11-08T22:53:08.388Z,24.90
2022-11-08T22:56:12.063Z,29.40
2022-11-08T22:59:15.391Z,27.40
2022-11-08T23:02:18.567Z,31.40
2022-11-08T23:05:21.678Z,28.20
2022-11-08T23:08:26.626Z,28.50
2022-11-08T23:11:48.272Z,29.70
2022-11-08T23:15:09.968Z,28.20
2022-11-08T23:18:13.089Z,28.60
2022-11-08T23:21:34.623Z,28.40
2022-11-08T23:24:38.156Z,17.70
2022-11-08T23:28:00.138Z,28.90
2022-11-08T23:31:21.533Z,28.90
2022-11-08T23:34:24.489Z,27.20
2022-11-08T23:37:28.052Z,26.60
2022-11-08T23:40:49.756Z,30.50
2022-11-08T23:44:11.823Z,26.70
2022-11-08T23:47:14.830Z,27.20
2022-11-08T23:50:18.393Z,27.00
2022-11-08T23:53:25.188Z,25.90
2022-11-08T23:56:28.912Z,27.90
2022-11-08T23:59:31.975Z,25.10
